createdAt,value
2023-01-17T00:01:18.696Z,98781.66
2023-01-17T00:04:06.231Z,98782.13
2023-01-17T00:06:52.064Z,98765.78
2023-01-17T00:10:00.056Z,98793.06
2023-01-17T00:12:33.501Z,98789.56
2023-01-17T00:15:01.283Z,98796.84
2023-01-17T00:17:29.885Z,98803.00
2023-01-17T00:20:20.397Z,98803.16
2023-01-17T00:23:11.028Z,98814.56
2023-01-17T00:25:57.632Z,98820.34
2023-01-17T00:28:25.160Z,98825.94
2023-01-17T00:30:52.332Z,98834.38
2023-01-17T00:33:28.450Z,98831.59
2023-01-17T00:36:00.247Z,98851.78
2023-01-17T00:38:28.835Z,98843.50
2023-01-17T00:41:01.923Z,98842.84
2023-01-17T00:43:48.609Z,98848.66
2023-01-17T00:46:34.917Z,98847.34
2023-01-17T00:49:27.315Z,98861.22
2023-01-17T00:52:14.532Z,98868.03
2023-01-17T00:55:02.629Z,98870.19
2023-01-17T00:57:48.786Z,98876.47
2023-01-17T01:00:35.676Z,98879.94
2023-01-17T01:03:27.442Z,98882.56
2023-01-17T01:06:12.846Z,98874.59
2023-01-17T01:09:03.542Z,98879.72
2023-01-17T01:11:48.907Z,98867.47
2023-01-17T01:14:42.221Z,98858.72
2023-01-17T01:17:27.776Z,98853.25
2023-01-17T01:20:15.045Z,98847.47
2023-01-17T01:23:03.568Z,98839.22
2023-01-17T01:25:50.818Z,98824.66
2023-01-17T01:28:36.077Z,98823.97
2023-01-17T01:31:23.045Z,98813.09
2023-01-17T01:33:50.812Z,98802.69
2023-01-17T01:36:18.009Z,98802.88
2023-01-17T01:38:45.835Z,98790.63
2023-01-17T01:41:15.854Z,98790.47
2023-01-17T01:43:46.721Z,98784.03
2023-01-17T01:46:18.519Z,98763.69
2023-01-17T01:48:50.391Z,98770.97
2023-01-17T01:51:24.153Z,98778.09
2023-01-17T01:53:54.450Z,98779.75
2023-01-17T01:56:23.893Z,98771.47
2023-01-17T01:58:51.495Z,98771.47
2023-01-17T02:01:19.339Z,98772.28
2023-01-17T02:03:47.966Z,98749.19
2023-01-17T02:06:28.267Z,98753.47
2023-01-17T02:08:58.085Z,98758.59
2023-01-17T02:11:27.164Z,98756.44
2023-01-17T02:13:56.806Z,98749.00
2023-01-17T02:16:43.121Z,98747.03
2023-01-17T02:19:36.165Z,98756.09
2023-01-17T02:22:23.330Z,98758.28
2023-01-17T02:25:15.272Z,98740.06
2023-01-17T02:28:04.193Z,98747.19
2023-01-17T02:30:37.746Z,98753.63
2023-01-17T02:33:24.436Z,98754.78
2023-01-17T02:36:04.514Z,98746.84
2023-01-17T02:38:39.930Z,98731.66
2023-01-17T02:41:13.472Z,98742.72
2023-01-17T02:43:41.368Z,98737.75
2023-01-17T02:46:10.034Z,98743.88
2023-01-17T02:48:37.877Z,98734.13
2023-01-17T02:51:21.094Z,98731.66
2023-01-17T02:54:00.952Z,98712.50
2023-01-17T02:56:44.851Z,98715.31
2023-01-17T02:59:24.822Z,98711.00
2023-01-17T03:02:07.190Z,98719.59
2023-01-17T03:04:39.117Z,98716.97
2023-01-17T03:07:11.851Z,98723.88
2023-01-17T03:09:43.550Z,98706.88
2023-01-17T03:12:10.532Z,98710.31
2023-01-17T03:14:42.854Z,98713.16
2023-01-17T03:17:11.156Z,98709.31
2023-01-17T03:19:38.468Z,98709.66
2023-01-17T03:22:05.978Z,98688.03
2023-01-17T03:24:33.404Z,98699.75
2023-01-17T03:27:00.247Z,98709.19
2023-01-17T03:29:27.375Z,98686.69
2023-01-17T03:31:54.414Z,98688.50
2023-01-17T03:34:24.830Z,98690.00
2023-01-17T03:36:51.823Z,98691.16
2023-01-17T03:39:20.228Z,98684.22
2023-01-17T03:41:49.645Z,98686.19
2023-01-17T03:44:16.975Z,98684.03
2023-01-17T03:46:44.562Z,98679.41
2023-01-17T03:49:11.752Z,98683.34
2023-01-17T03:51:40.029Z,98693.78
2023-01-17T03:54:07.661Z,98702.69
2023-01-17T03:56:34.454Z,98708.31
2023-01-17T03:59:01.818Z,98714.75
2023-01-17T04:01:29.125Z,98714.59
2023-01-17T04:03:58.433Z,98715.91
2023-01-17T04:06:25.448Z,98725.00
2023-01-17T04:08:55.133Z,98724.88
2023-01-17T04:11:24.478Z,98746.84
2023-01-17T04:13:55.281Z,98741.88
2023-01-17T04:16:26.934Z,98747.81
2023-01-17T04:18:57.625Z,98752.28
2023-01-17T04:21:24.529Z,98747.69
2023-01-17T04:23:51.893Z,98766.53
2023-01-17T04:26:20.306Z,98770.69
2023-01-17T04:28:47.589Z,98782.91
2023-01-17T04:31:16.549Z,98788.50
2023-01-17T04:33:44.085Z,98804.06
2023-01-17T04:36:11.169Z,98796.28
2023-01-17T04:38:41.530Z,98787.34
2023-01-17T04:41:08.431Z,98791.16
2023-01-17T04:43:42.949Z,98790.13
2023-01-17T04:46:11.992Z,98794.63
2023-01-17T04:48:39.207Z,98781.22
2023-01-17T04:51:06.725Z,98801.06
2023-01-17T04:53:36.075Z,98797.59
2023-01-17T04:56:04.851Z,98794.28
2023-01-17T04:58:33.312Z,98794.78
2023-01-17T05:01:08.941Z,98796.28
2023-01-17T05:03:36.353Z,98804.22
2023-01-17T05:06:03.368Z,98806.66
2023-01-17T05:08:30.525Z,98817.44
2023-01-17T05:10:57.417Z,98827.50
2023-01-17T05:13:24.880Z,98827.50
2023-01-17T05:15:52.186Z,98822.88
2023-01-17T05:18:20.871Z,98828.66
2023-01-17T05:20:47.887Z,98827.00
2023-01-17T05:23:15.116Z,98832.59
2023-01-17T05:25:44.212Z,98842.88
2023-01-17T05:28:12.353Z,98840.88
2023-01-17T05:30:39.487Z,98844.03
2023-01-17T05:33:07.993Z,98834.78
2023-01-17T05:35:37.059Z,98827.66
2023-01-17T05:38:04.670Z,98843.03
2023-01-17T05:40:33.218Z,98863.19
2023-01-17T05:43:02.934Z,98846.81
2023-01-17T05:45:33.250Z,98818.06
2023-01-17T05:48:00.946Z,98803.03
2023-01-17T05:50:31.087Z,98803.38
2023-01-17T05:53:01.638Z,98828.66
2023-01-17T05:55:29.681Z,98827.47
2023-01-17T05:58:00.782Z,98813.44
2023-01-17T06:00:30.966Z,98797.28
2023-01-17T06:02:59.319Z,98788.31
2023-01-17T06:05:30.414Z,98805.66
2023-01-17T06:08:04.232Z,98818.56
2023-01-17T06:10:31.343Z,98809.66
2023-01-17T06:13:02.825Z,98815.94
2023-01-17T06:15:29.816Z,98826.66
2023-01-17T06:18:03.272Z,98840.53
2023-01-17T06:20:30.300Z,98842.88
2023-01-17T06:23:02.289Z,98845.50
2023-01-17T06:25:36.654Z,98834.44
2023-01-17T06:28:04.251Z,98839.06
2023-01-17T06:30:31.148Z,98841.06
2023-01-17T06:32:58.348Z,98839.91
2023-01-17T06:35:25.229Z,98844.72
2023-01-17T06:37:55.472Z,98844.72
2023-01-17T06:40:23.938Z,98851.66
2023-01-17T06:42:52.865Z,98868.69
2023-01-17T06:45:20.611Z,98880.59
2023-01-17T06:47:47.774Z,98887.03
2023-01-17T06:50:15.455Z,98884.91
2023-01-17T06:52:43.330Z,98891.19
2023-01-17T06:55:10.463Z,98899.63
2023-01-17T06:57:39.143Z,98898.47
2023-01-17T07:00:07.840Z,98895.97
2023-01-17T07:02:34.986Z,98894.59
2023-01-17T07:05:01.907Z,98902.69
2023-01-17T07:07:33.667Z,98898.25
2023-01-17T07:10:05.002Z,98891.97
2023-01-17T07:12:33.675Z,98896.75
2023-01-17T07:15:05.018Z,98904.53
2023-01-17T07:17:32.269Z,98906.38
2023-01-17T07:19:59.223Z,98917.44
2023-01-17T07:22:26.326Z,98910.00
2023-01-17T07:24:58.356Z,98920.59
2023-01-17T07:27:25.792Z,98917.78
2023-01-17T07:29:54.216Z,98924.56
2023-01-17T07:32:22.953Z,98934.00
2023-01-17T07:34:51.002Z,98932.00
2023-01-17T07:37:19.883Z,98932.16
2023-01-17T07:39:46.965Z,98933.50
2023-01-17T07:42:14.408Z,98936.81
2023-01-17T07:44:44.005Z,98949.22
2023-01-17T07:47:11.770Z,98940.94
2023-01-17T07:49:40.274Z,98938.66
2023-01-17T07:52:07.998Z,98939.00
2023-01-17T07:54:35.454Z,98936.84
2023-01-17T07:57:03.372Z,98951.72
2023-01-17T07:59:30.354Z,98955.03
2023-01-17T08:01:58.850Z,98959.97
2023-01-17T08:04:26.808Z,98953.88
2023-01-17T08:06:55.522Z,98972.72
2023-01-17T08:09:22.512Z,98970.25
2023-01-17T08:11:49.697Z,98973.22
2023-01-17T08:14:16.643Z,98976.38
2023-01-17T08:16:46.105Z,98974.88
2023-01-17T08:19:17.167Z,98983.81
2023-01-17T08:21:44.487Z,98977.03
2023-01-17T08:24:18.240Z,98987.28
2023-01-17T08:26:46.649Z,98971.09
2023-01-17T08:29:16.406Z,98990.44
2023-01-17T08:31:46.527Z,98980.50
2023-01-17T08:34:14.267Z,98992.41
2023-01-17T08:36:43.879Z,98981.66
2023-01-17T08:39:13.072Z,98988.78
2023-01-17T08:41:41.827Z,98987.44
2023-01-17T08:44:08.768Z,98982.00
2023-01-17T08:46:37.924Z,98978.84
2023-01-17T08:49:09.392Z,98987.97
2023-01-17T08:51:36.742Z,98988.28
2023-01-17T08:54:06.988Z,98991.44
2023-01-17T08:56:35.336Z,99004.31
2023-01-17T08:59:03.653Z,98984.28
2023-01-17T09:01:31.027Z,99007.41
2023-01-17T09:03:58.048Z,99004.25
2023-01-17T09:06:25.342Z,98990.47
2023-01-17T09:08:59.619Z,98991.25
2023-01-17T09:11:34.694Z,98990.38
2023-01-17T09:14:03.467Z,98985.50
2023-01-17T09:16:31.940Z,98996.03
2023-01-17T09:19:01.235Z,98976.91
2023-01-17T09:21:28.414Z,98985.28
2023-01-17T09:23:56.338Z,98985.19
2023-01-17T09:26:27.572Z,98984.94
2023-01-17T09:28:55.142Z,98982.38
2023-01-17T09:31:24.766Z,98998.06
2023-01-17T09:33:54.545Z,98989.81
2023-01-17T09:36:24.138Z,98988.84
2023-01-17T09:38:56.117Z,98986.84
2023-01-17T09:41:29.305Z,98992.38
2023-01-17T09:44:03.167Z,98979.59
2023-01-17T09:46:37.461Z,98980.66
2023-01-17T09:49:08.638Z,98975.56
2023-01-17T09:51:36.782Z,98991.25
2023-01-17T09:54:04.680Z,98965.66
2023-01-17T09:56:37.093Z,98973.81
2023-01-17T09:59:33.041Z,98989.19
2023-01-17T10:02:17.903Z,98998.28
2023-01-17T10:05:01.594Z,98972.22
2023-01-17T10:07:40.738Z,98988.84
2023-01-17T10:10:22.111Z,98989.09
2023-01-17T10:12:56.545Z,98988.03
2023-01-17T10:15:54.533Z,98991.31
2023-01-17T10:18:37.808Z,98989.63
2023-01-17T10:21:09.610Z,98989.53
2023-01-17T10:24:01.108Z,98989.84
2023-01-17T10:26:28.039Z,98973.50
2023-01-17T10:29:02.921Z,98969.44
2023-01-17T10:31:34.319Z,98973.03
2023-01-17T10:34:11.771Z,98979.69
2023-01-17T10:36:41.877Z,98965.94
2023-01-17T10:39:17.478Z,98950.72
2023-01-17T10:41:50.798Z,98951.91
2023-01-17T10:44:24.146Z,98956.41
2023-01-17T10:46:56.258Z,98947.38
2023-01-17T10:49:26.409Z,98941.78
2023-01-17T10:52:03.796Z,98946.06
2023-01-17T10:54:44.639Z,98945.69
2023-01-17T10:57:14.945Z,98918.81
2023-01-17T10:59:42.129Z,98938.59
2023-01-17T11:02:19.850Z,98938.66
2023-01-17T11:04:52.125Z,98925.03
2023-01-17T11:07:23.257Z,98926.97
2023-01-17T11:09:53.218Z,98929.16
2023-01-17T11:12:27.051Z,98926.31
2023-01-17T11:15:22.798Z,98907.22
2023-01-17T11:17:53.269Z,98907.56
2023-01-17T11:20:38.314Z,98904.47
2023-01-17T11:23:16.535Z,98908.78
2023-01-17T11:25:57.040Z,98900.97
2023-01-17T11:28:30.306Z,98905.94
2023-01-17T11:31:00.459Z,98907.16
2023-01-17T11:33:45.106Z,98896.00
2023-01-17T11:36:22.096Z,98889.41
2023-01-17T11:39:04.548Z,98891.72
2023-01-17T11:41:36.633Z,98898.50
2023-01-17T11:44:20.273Z,98900.94
2023-01-17T11:46:49.168Z,98882.97
2023-01-17T11:49:24.249Z,98876.53
2023-01-17T11:51:56.146Z,98883.47
2023-01-17T11:54:30.090Z,98880.66
2023-01-17T11:56:57.965Z,98875.09
2023-01-17T11:59:30.241Z,98853.56
2023-01-17T12:02:31.970Z,98848.41
2023-01-17T12:05:15.438Z,98850.06
2023-01-17T12:07:51.370Z,98856.00
2023-01-17T12:10:25.718Z,98837.72
2023-01-17T12:13:17.456Z,98846.78
2023-01-17T12:15:57.792Z,98842.38
2023-01-17T12:18:36.068Z,98836.19
2023-01-17T12:21:15.724Z,98836.41
2023-01-17T12:23:58.569Z,98834.72
2023-01-17T12:26:37.112Z,98846.41
2023-01-17T12:29:36.465Z,98840.94
2023-01-17T12:32:19.538Z,98840.34
2023-01-17T12:34:53.742Z,98830.63
2023-01-17T12:37:26.461Z,98811.63
2023-01-17T12:40:00.525Z,98803.25
2023-01-17T12:42:32.505Z,98803.63
2023-01-17T12:45:05.496Z,98798.28
2023-01-17T12:47:37.822Z,98799.06
2023-01-17T12:50:15.452Z,98790.22
2023-01-17T12:52:51.805Z,98789.78
2023-01-17T12:55:27.329Z,98790.59
2023-01-17T12:57:58.624Z,98782.56
2023-01-17T13:00:31.958Z,98795.22
2023-01-17T13:03:05.802Z,98791.34
2023-01-17T13:05:38.260Z,98797.63
2023-01-17T13:08:17.144Z,98790.22
2023-01-17T13:10:51.314Z,98786.69
2023-01-17T13:13:23.986Z,98781.13
2023-01-17T13:15:55.063Z,98782.38
2023-01-17T13:18:25.978Z,98768.63
2023-01-17T13:21:20.825Z,98745.53
2023-01-17T13:24:09.877Z,98752.78
2023-01-17T13:26:56.490Z,98744.88
2023-01-17T13:29:34.565Z,98742.91
2023-01-17T13:32:17.181Z,98745.41
2023-01-17T13:35:15.646Z,98736.78
2023-01-17T13:38:08.883Z,98744.94
2023-01-17T13:40:45.384Z,98740.19
2023-01-17T13:43:18.316Z,98743.66
2023-01-17T13:45:52.995Z,98735.88
2023-01-17T13:48:31.406Z,98739.38
2023-01-17T13:51:02.695Z,98728.78
2023-01-17T13:53:59.977Z,98718.75
2023-01-17T13:56:33.244Z,98724.91
2023-01-17T13:59:07.330Z,98723.91
2023-01-17T14:01:54.126Z,98720.22
2023-01-17T14:04:25.094Z,98708.16
2023-01-17T14:06:55.677Z,98697.94
2023-01-17T14:09:27.551Z,98692.41
2023-01-17T14:12:27.972Z,98690.72
2023-01-17T14:15:01.328Z,98696.84
2023-01-17T14:17:49.881Z,98692.03
2023-01-17T14:20:53.550Z,98686.69
2023-01-17T14:23:46.321Z,98671.31
2023-01-17T14:26:52.037Z,98679.31
2023-01-17T14:29:53.731Z,98669.63
2023-01-17T14:32:24.376Z,98659.53
2023-01-17T14:34:53.079Z,98655.22
2023-01-17T14:37:29.455Z,98646.16
2023-01-17T14:39:56.575Z,98646.75
2023-01-17T14:42:26.450Z,98643.66
2023-01-17T14:45:02.185Z,98631.56
2023-01-17T14:47:35.688Z,98625.84
2023-01-17T14:50:21.564Z,98624.78
2023-01-17T14:52:49.182Z,98611.47
2023-01-17T14:55:18.770Z,98598.56
2023-01-17T14:57:55.883Z,98589.75
2023-01-17T15:00:26.465Z,98588.09
2023-01-17T15:02:57.109Z,98594.22
2023-01-17T15:05:27.002Z,98585.38
2023-01-17T15:07:58.210Z,98584.78
2023-01-17T15:10:28.325Z,98581.69
2023-01-17T15:13:06.794Z,98578.41
2023-01-17T15:15:38.326Z,98577.56
2023-01-17T15:18:22.088Z,98568.78
2023-01-17T15:20:54.790Z,98563.41
2023-01-17T15:23:26.999Z,98574.03
2023-01-17T15:25:54.356Z,98565.63
2023-01-17T15:28:21.607Z,98565.84
2023-01-17T15:31:17.072Z,98562.72
2023-01-17T15:33:56.744Z,98559.84
2023-01-17T15:36:28.117Z,98546.31
2023-01-17T15:38:59.819Z,98545.88
2023-01-17T15:41:32.640Z,98543.56
2023-01-17T15:44:00.385Z,98536.59
2023-01-17T15:46:33.937Z,98526.16
2023-01-17T15:49:17.752Z,98524.06
2023-01-17T15:51:48.673Z,98522.78
2023-01-17T15:54:41.559Z,98517.63
2023-01-17T15:57:25.461Z,98505.94
2023-01-17T15:59:55.856Z,98491.41
2023-01-17T16:02:27.297Z,98484.44
2023-01-17T16:04:56.437Z,98478.69
2023-01-17T16:07:31.349Z,98463.94
2023-01-17T16:10:08.558Z,98464.53
2023-01-17T16:12:37.808Z,98456.28
2023-01-17T16:15:12.934Z,98454.63
2023-01-17T16:17:42.323Z,98453.75
2023-01-17T16:20:16.685Z,98455.41
2023-01-17T16:22:46.614Z,98447.81
2023-01-17T16:25:15.131Z,98443.06
2023-01-17T16:27:43.219Z,98437.72
2023-01-17T16:30:17.946Z,98417.25
2023-01-17T16:32:48.888Z,98419.94
2023-01-17T16:35:25.585Z,98406.63
2023-01-17T16:37:54.278Z,98391.25
2023-01-17T16:40:23.944Z,98393.66
2023-01-17T16:42:51.487Z,98379.81
2023-01-17T16:45:26.145Z,98376.72
2023-01-17T16:47:59.093Z,98375.25
2023-01-17T16:50:29.479Z,98371.66
2023-01-17T16:52:57.074Z,98359.78
2023-01-17T16:55:25.491Z,98369.97
2023-01-17T16:57:54.145Z,98364.28
2023-01-17T17:00:22.741Z,98368.13
2023-01-17T17:02:49.922Z,98376.03
2023-01-17T17:05:17.443Z,98368.25
2023-01-17T17:07:50.139Z,98361.50
2023-01-17T17:10:20.636Z,98357.63
2023-01-17T17:12:47.579Z,98362.81
2023-01-17T17:15:14.834Z,98364.84
2023-01-17T17:17:43.349Z,98358.69
2023-01-17T17:20:12.966Z,98351.28
2023-01-17T17:22:40.620Z,98355.75
2023-01-17T17:25:10.391Z,98347.19
2023-01-17T17:27:37.306Z,98345.16
2023-01-17T17:30:05.201Z,98348.78
2023-01-17T17:32:32.362Z,98340.72
2023-01-17T17:35:00.531Z,98339.72
2023-01-17T17:37:30.400Z,98337.28
2023-01-17T17:39:58.909Z,98331.97
2023-01-17T17:42:29.492Z,98334.84
2023-01-17T17:44:56.737Z,98323.03
2023-01-17T17:47:26.551Z,98322.47
2023-01-17T17:49:54.012Z,98318.00
2023-01-17T17:52:20.927Z,98318.63
2023-01-17T17:54:48.329Z,98310.97
2023-01-17T17:57:15.240Z,98294.50
2023-01-17T17:59:43.799Z,98304.78
2023-01-17T18:02:11.147Z,98288.50
2023-01-17T18:04:39.899Z,98290.16
2023-01-17T18:07:06.890Z,98283.44
2023-01-17T18:09:34.162Z,98276.09
2023-01-17T18:12:04.546Z,98274.66
2023-01-17T18:14:33.105Z,98271.78
2023-01-17T18:17:04.054Z,98259.13
2023-01-17T18:19:33.947Z,98250.31
2023-01-17T18:22:03.719Z,98247.03
2023-01-17T18:24:34.136Z,98247.66
2023-01-17T18:27:01.171Z,98239.09
2023-01-17T18:29:28.840Z,98232.56
2023-01-17T18:31:56.097Z,98216.88
2023-01-17T18:34:29.153Z,98207.28
2023-01-17T18:37:01.567Z,98195.88
2023-01-17T18:39:30.149Z,98180.34
2023-01-17T18:41:59.411Z,98170.22
2023-01-17T18:44:27.572Z,98155.56
2023-01-17T18:46:55.013Z,98145.78
2023-01-17T18:49:24.767Z,98126.56
2023-01-17T18:51:54.396Z,98158.06
2023-01-17T18:54:22.108Z,98160.31
2023-01-17T18:56:51.215Z,98162.34
2023-01-17T18:59:25.888Z,98141.66
2023-01-17T19:01:53.111Z,98153.69
2023-01-17T19:04:21.528Z,98142.41
2023-01-17T19:06:52.535Z,98164.09
2023-01-17T19:09:22.265Z,98159.16
2023-01-17T19:11:50.057Z,98160.16
2023-01-17T19:14:21.502Z,98164.00
2023-01-17T19:16:52.173Z,98182.44
2023-01-17T19:19:20.566Z,98165.81
2023-01-17T19:21:52.200Z,98153.53
2023-01-17T19:24:19.169Z,98165.16
2023-01-17T19:26:47.770Z,98176.59
2023-01-17T19:29:14.682Z,98149.94
2023-01-17T19:31:43.167Z,98171.47
2023-01-17T19:34:18.878Z,98166.72
2023-01-17T19:36:46.358Z,98172.84
2023-01-17T19:39:14.686Z,98163.63
2023-01-17T19:41:46.276Z,98168.09
2023-01-17T19:44:14.679Z,98154.75
2023-01-17T19:46:44.438Z,98158.25
2023-01-17T19:49:16.322Z,98169.72
2023-01-17T19:51:43.674Z,98159.88
2023-01-17T19:54:10.671Z,98131.78
2023-01-17T19:56:39.157Z,98154.75
2023-01-17T19:59:08.903Z,98153.13
2023-01-17T20:01:37.478Z,98152.31
2023-01-17T20:04:05.016Z,98161.31
2023-01-17T20:06:33.905Z,98143.88
2023-01-17T20:09:01.137Z,98144.09
2023-01-17T20:11:28.898Z,98154.31
2023-01-17T20:14:01.759Z,98145.72
2023-01-17T20:16:30.971Z,98154.97
2023-01-17T20:18:59.043Z,98139.59
2023-01-17T20:21:29.154Z,98139.97
2023-01-17T20:23:58.117Z,98150.47
2023-01-17T20:26:35.391Z,98150.47
2023-01-17T20:29:06.917Z,98129.72
2023-01-17T20:31:38.074Z,98145.72
2023-01-17T20:34:06.306Z,98150.84
2023-01-17T20:36:33.983Z,98141.81
2023-01-17T20:39:03.299Z,98139.16
2023-01-17T20:41:32.491Z,98134.25
2023-01-17T20:44:00.685Z,98115.59
2023-01-17T20:46:32.124Z,98121.72
2023-01-17T20:49:01.200Z,98124.63
2023-01-17T20:51:29.644Z,98124.44
2023-01-17T20:53:58.369Z,98115.63
2023-01-17T20:56:26.724Z,98116.00
2023-01-17T20:58:55.197Z,98130.81
2023-01-17T21:01:23.163Z,98139.22
2023-01-17T21:03:53.855Z,98131.28
2023-01-17T21:06:23.039Z,98137.66
2023-01-17T21:08:51.047Z,98131.28
2023-01-17T21:11:20.181Z,98145.03
2023-01-17T21:13:48.833Z,98151.38
2023-01-17T21:16:17.795Z,98147.09
2023-01-17T21:18:47.548Z,98152.28
2023-01-17T21:21:22.078Z,98178.34
2023-01-17T21:23:50.560Z,98152.75
2023-01-17T21:26:19.169Z,98174.31
2023-01-17T21:28:47.536Z,98183.78
2023-01-17T21:31:23.331Z,98186.44
2023-01-17T21:33:52.738Z,98187.47
2023-01-17T21:36:23.553Z,98179.28
2023-01-17T21:38:52.490Z,98185.25
2023-01-17T21:41:20.741Z,98175.84
2023-01-17T21:43:48.013Z,98182.63
2023-01-17T21:46:15.266Z,98170.75
2023-01-17T21:48:44.365Z,98164.59
2023-01-17T21:51:11.609Z,98162.94
2023-01-17T21:53:40.242Z,98171.16
2023-01-17T21:56:28.861Z,98173.84
2023-01-17T21:58:57.776Z,98156.84
2023-01-17T22:01:26.835Z,98160.13
2023-01-17T22:04:02.839Z,98164.41
2023-01-17T22:06:32.581Z,98160.13
2023-01-17T22:09:00.855Z,98162.16
2023-01-17T22:11:30.431Z,98152.31
2023-01-17T22:13:59.172Z,98158.91
2023-01-17T22:16:29.369Z,98170.56
2023-01-17T22:18:56.435Z,98164.63
2023-01-17T22:21:34.329Z,98164.00
2023-01-17T22:24:11.546Z,98182.00
2023-01-17T22:26:40.999Z,98168.09
2023-01-17T22:29:10.560Z,98200.59
2023-01-17T22:31:37.821Z,98211.88
2023-01-17T22:34:05.322Z,98210.44
2023-01-17T22:36:33.354Z,98202.69
2023-01-17T22:39:02.244Z,98211.88
2023-01-17T22:41:31.195Z,98208.41
2023-01-17T22:43:59.826Z,98212.69
2023-01-17T22:46:29.210Z,98216.78
2023-01-17T22:48:56.193Z,98228.22
2023-01-17T22:51:25.451Z,98224.13
2023-01-17T22:53:53.697Z,98221.28
2023-01-17T22:56:23.697Z,98224.34
2023-01-17T22:58:50.589Z,98235.59
2023-01-17T23:01:19.859Z,98243.38
2023-01-17T23:03:51.778Z,98264.44
2023-01-17T23:06:21.278Z,98255.03
2023-01-17T23:08:50.399Z,98263.22
2023-01-17T23:11:42.342Z,98264.66
2023-01-17T23:14:14.196Z,98266.06
2023-01-17T23:17:01.726Z,98287.13
2023-01-17T23:19:36.822Z,98298.13
2023-01-17T23:22:21.017Z,98309.59
2023-01-17T23:24:51.094Z,98316.78
2023-01-17T23:27:41.617Z,98291.16
2023-01-17T23:30:12.185Z,98267.84
2023-01-17T23:32:40.766Z,98252.69
2023-01-17T23:35:11.053Z,98247.56
2023-01-17T23:38:13.261Z,98234.41
2023-01-17T23:40:40.744Z,98240.16
2023-01-17T23:43:30.957Z,98246.91
2023-01-17T23:45:57.932Z,98260.44
2023-01-17T23:48:28.427Z,98261.66
2023-01-17T23:50:58.214Z,98269.66
2023-01-17T23:53:29.936Z,98271.13
2023-01-17T23:55:57.301Z,98267.44
2023-01-17T23:58:29.698Z,98272.31
